Time;durP1;ratioP1;P1;durP2;ratioP2;P2;SDS_P1;SDS_P2;PMS_P1;PMS_P2;Temp;Humidity;BMP_temperature;BMP_pressure;BME280_temperature;BME280_humidity;BME280_pressure;Samples;Min_cycle;Max_cycle;Signal;HPM_P1;HPM_P2
2021/07/28 00:01:22;;;;;;;0.50;0.40;;;16.10;99.90;;;;;;5017842;28;20486;-83
2021/07/28 00:03:49;;;;;;;0.50;0.30;;;16.10;99.90;;;;;;5017401;28;20890;-82
2021/07/28 00:06:20;;;;;;;0.50;0.30;;;16.10;99.90;;;;;;5017180;28;20442;-81
2021/07/28 00:08:47;;;;;;;5.83;2.07;;;16.20;99.90;;;;;;5017574;28;20490;-82
2021/07/28 00:11:15;;;;;;;0.50;0.30;;;16.20;99.90;;;;;;5017923;28;20440;-82
2021/07/28 00:13:44;;;;;;;0.50;0.40;;;16.20;99.90;;;;;;5017169;28;20449;-81
2021/07/28 00:16:13;;;;;;;0.50;0.40;;;16.20;99.90;;;;;;5017605;28;20442;-82
2021/07/28 00:18:50;;;;;;;1.73;1.63;;;16.30;99.90;;;;;;5017816;28;20514;-81
2021/07/28 00:24:01;;;;;;;0.60;0.60;;;16.30;99.90;;;;;;5016971;28;20430;-80
2021/07/28 00:26:29;;;;;;;0.50;0.30;;;16.30;99.90;;;;;;5018185;28;20447;-82
2021/07/28 00:28:56;;;;;;;1.67;1.57;;;16.30;99.90;;;;;;5018085;28;20537;-82
2021/07/28 00:31:24;;;;;;;0.50;0.50;;;16.30;99.90;;;;;;5017510;28;20447;-82
2021/07/28 00:33:50;;;;;;;2.77;0.97;;;16.40;99.90;;;;;;5017857;28;20444;-82
2021/07/28 00:36:17;;;;;;;0.50;0.30;;;16.40;99.90;;;;;;5017695;28;20439;-83
2021/07/28 00:38:44;;;;;;;0.80;0.80;;;16.40;99.90;;;;;;5016693;28;20988;-82
2021/07/28 00:41:13;;;;;;;0.50;0.30;;;16.40;99.90;;;;;;5018008;28;20435;-82
2021/07/28 00:43:40;;;;;;;0.50;0.50;;;16.40;99.90;;;;;;5017759;28;20863;-84
2021/07/28 00:46:07;;;;;;;1.67;0.93;;;16.40;99.90;;;;;;5017245;28;20439;-81
2021/07/28 00:48:35;;;;;;;0.60;0.60;;;16.40;99.90;;;;;;5017408;28;20482;-83
2021/07/28 00:51:02;;;;;;;0.50;0.30;;;16.40;99.90;;;;;;5017388;28;20499;-83
2021/07/28 00:53:29;;;;;;;1.10;1.10;;;16.50;99.90;;;;;;5017488;28;20443;-82
2021/07/28 00:55:56;;;;;;;0.50;0.30;;;16.50;99.90;;;;;;5017333;28;20442;-81
2021/07/28 00:58:23;;;;;;;0.50;0.40;;;16.50;99.90;;;;;;5017210;28;20467;-83
2021/07/28 01:00:50;;;;;;;0.80;0.70;;;16.50;99.90;;;;;;5016514;28;20959;-82
2021/07/28 01:03:17;;;;;;;0.60;0.60;;;16.50;99.90;;;;;;5017389;28;20788;-80
2021/07/28 01:05:45;;;;;;;5.33;2.67;;;16.50;99.90;;;;;;5016889;28;20518;-81
2021/07/28 01:08:12;;;;;;;1.23;0.97;;;16.50;99.90;;;;;;5017244;28;21019;-79
2021/07/28 01:10:39;;;;;;;2.93;2.07;;;16.50;99.90;;;;;;5016688;28;20439;-81
2021/07/28 01:13:07;;;;;;;0.80;0.80;;;16.50;99.90;;;;;;5017060;28;20442;-82
2021/07/28 01:15:40;;;;;;;4.20;1.57;;;16.50;99.90;;;;;;5016787;28;20451;-82
2021/07/28 01:18:08;;;;;;;0.50;0.30;;;16.50;99.90;;;;;;5017184;28;21368;-81
2021/07/28 01:20:37;;;;;;;0.50;0.50;;;16.40;99.90;;;;;;5016777;28;20447;-84
2021/07/28 01:23:08;;;;;;;1.27;1.27;;;16.30;99.90;;;;;;5017283;28;20448;-81
2021/07/28 01:25:37;;;;;;;0.80;0.80;;;16.30;99.90;;;;;;5017420;28;20422;-83
2021/07/28 01:28:05;;;;;;;0.50;0.30;;;16.30;99.90;;;;;;5016296;28;20482;-80
2021/07/28 01:30:32;;;;;;;0.50;0.40;;;16.20;99.90;;;;;;5017291;28;20447;-82
2021/07/28 01:33:01;;;;;;;0.90;0.77;;;16.20;99.90;;;;;;5016767;28;20474;-82
2021/07/28 01:35:28;;;;;;;0.60;0.60;;;16.20;99.90;;;;;;5016702;28;20960;-81
2021/07/28 01:37:55;;;;;;;0.50;0.40;;;16.20;99.90;;;;;;5016679;28;20471;-81
2021/07/28 01:40:22;;;;;;;0.67;0.67;;;16.20;99.90;;;;;;5016260;28;20443;-83
2021/07/28 01:42:51;;;;;;;1.70;1.07;;;16.20;99.90;;;;;;5016975;28;20504;-82
2021/07/28 01:45:18;;;;;;;0.70;0.70;;;16.20;99.90;;;;;;5017178;28;20436;-82
2021/07/28 01:47:47;;;;;;;0.50;0.37;;;16.30;99.90;;;;;;5017110;28;20490;-83
2021/07/28 01:50:14;;;;;;;1.10;0.70;;;16.30;99.90;;;;;;5016098;28;20439;-81
2021/07/28 01:52:42;;;;;;;2.60;2.50;;;16.30;99.90;;;;;;5017302;28;20443;-82
2021/07/28 01:55:10;;;;;;;1.70;0.80;;;16.40;99.90;;;;;;5016553;28;20438;-83
2021/07/28 01:57:36;;;;;;;0.97;0.87;;;16.40;99.90;;;;;;5016861;28;20451;-83
2021/07/28 02:00:07;;;;;;;0.87;0.87;;;16.30;99.90;;;;;;5019575;28;20444;-81
2021/07/28 02:02:35;;;;;;;0.50;0.30;;;16.30;99.90;;;;;;5018921;28;20423;-81
2021/07/28 02:05:03;;;;;;;0.50;0.30;;;16.30;99.90;;;;;;5019510;28;20453;-81
2021/07/28 02:07:30;;;;;;;1.83;1.07;;;16.30;99.90;;;;;;5017302;28;20475;-81
2021/07/28 02:09:57;;;;;;;0.70;0.70;;;16.30;99.90;;;;;;5018835;28;20820;-82
2021/07/28 02:12:24;;;;;;;1.30;1.30;;;16.40;99.90;;;;;;5018409;28;20473;-81
2021/07/28 02:14:51;;;;;;;2.20;2.10;;;16.40;99.90;;;;;;5018203;28;20443;-81
2021/07/28 02:17:19;;;;;;;0.50;0.40;;;16.40;99.90;;;;;;5016790;28;20454;-83
2021/07/28 02:19:46;;;;;;;0.50;0.40;;;16.40;99.90;;;;;;5017586;28;20443;-82
2021/07/28 02:22:12;;;;;;;2.70;2.20;;;16.40;99.90;;;;;;5017106;28;20450;-83
2021/07/28 02:24:40;;;;;;;0.50;0.50;;;16.40;99.90;;;;;;5017974;28;20435;-83
2021/07/28 02:27:07;;;;;;;0.50;0.33;;;16.50;99.90;;;;;;5017871;28;20450;-81
2021/07/28 02:29:34;;;;;;;0.50;0.40;;;16.50;99.90;;;;;;5017471;28;20486;-83
2021/07/28 02:32:02;;;;;;;0.60;0.50;;;16.50;99.90;;;;;;5022053;28;20450;-83
2021/07/28 02:34:30;;;;;;;0.50;0.30;;;16.50;99.90;;;;;;5017390;28;20447;-82
2021/07/28 02:36:57;;;;;;;0.50;0.30;;;16.50;99.90;;;;;;5017917;28;20435;-82
2021/07/28 02:39:24;;;;;;;0.50;0.40;;;16.50;99.90;;;;;;5017624;28;20550;-82
2021/07/28 02:41:52;;;;;;;1.63;1.63;;;16.50;99.90;;;;;;5018435;28;20438;-83
2021/07/28 02:44:19;;;;;;;0.50;0.30;;;16.50;99.90;;;;;;5019549;28;20450;-83
2021/07/28 02:46:45;;;;;;;1.60;1.47;;;16.50;99.90;;;;;;5022248;28;20450;-83
2021/07/28 02:49:12;;;;;;;0.50;0.50;;;16.50;99.90;;;;;;5020878;28;20840;-83
2021/07/28 02:51:40;;;;;;;0.50;0.30;;;16.50;99.90;;;;;;5021476;28;20982;-83
2021/07/28 02:54:08;;;;;;;0.93;0.93;;;16.50;99.90;;;;;;5020907;28;20446;-83
2021/07/28 02:56:35;;;;;;;0.50;0.50;;;16.50;99.90;;;;;;5022172;28;20485;-83
2021/07/28 02:59:02;;;;;;;1.27;1.27;;;16.50;99.90;;;;;;5020875;28;20473;-82
2021/07/28 03:01:29;;;;;;;0.63;0.60;;;16.50;99.90;;;;;;5022080;28;20525;-83
2021/07/28 03:03:55;;;;;;;1.70;1.60;;;16.50;99.90;;;;;;5022663;28;20501;-83
2021/07/28 03:06:22;;;;;;;0.50;0.40;;;16.50;99.90;;;;;;5019013;28;20534;-82
2021/07/28 03:08:50;;;;;;;0.50;0.30;;;16.40;99.90;;;;;;5017503;28;20482;-81
2021/07/28 03:11:17;;;;;;;0.50;0.30;;;16.40;99.90;;;;;;5017887;28;20450;-79
2021/07/28 03:13:44;;;;;;;0.50;0.30;;;16.40;99.90;;;;;;5018130;28;20450;-81
2021/07/28 03:16:10;;;;;;;0.77;0.77;;;16.40;99.90;;;;;;5018488;28;20440;-81
2021/07/28 03:18:37;;;;;;;0.50;0.30;;;16.40;99.90;;;;;;5018049;28;20463;-81
2021/07/28 03:21:04;;;;;;;0.50;0.30;;;16.50;99.90;;;;;;5017284;28;20447;-81
2021/07/28 03:23:31;;;;;;;4.20;2.90;;;16.50;99.90;;;;;;5018344;28;20440;-81
2021/07/28 03:25:59;;;;;;;0.50;0.30;;;16.50;99.90;;;;;;5018068;28;20446;-81
2021/07/28 03:28:26;;;;;;;0.67;0.53;;;16.60;99.90;;;;;;5022276;28;20504;-83
2021/07/28 03:30:53;;;;;;;2.30;1.50;;;16.60;99.90;;;;;;5019890;28;20812;-83
2021/07/28 03:33:20;;;;;;;1.70;1.07;;;16.60;99.90;;;;;;5033049;28;20445;-81
2021/07/28 03:35:47;;;;;;;0.50;0.33;;;16.60;99.90;;;;;;5021841;28;20435;-83
2021/07/28 03:38:14;;;;;;;0.50;0.30;;;16.60;99.90;;;;;;5018601;28;20464;-82
2021/07/28 03:40:41;;;;;;;0.60;0.60;;;16.50;99.90;;;;;;5018483;28;20454;-82
2021/07/28 03:43:09;;;;;;;0.83;0.83;;;16.50;99.90;;;;;;5018342;28;20854;-82
2021/07/28 03:45:36;;;;;;;0.50;0.30;;;16.50;99.90;;;;;;5017702;28;20447;-83
2021/07/28 03:48:03;;;;;;;0.50;0.40;;;16.40;99.90;;;;;;5017818;28;20479;-82
2021/07/28 03:50:30;;;;;;;0.50;0.30;;;16.40;99.90;;;;;;5017336;28;20440;-82
2021/07/28 03:52:57;;;;;;;0.50;0.40;;;16.40;99.90;;;;;;5018392;28;20447;-83
2021/07/28 03:55:24;;;;;;;0.50;0.30;;;16.30;99.90;;;;;;5019205;28;20494;-80
2021/07/28 03:57:51;;;;;;;0.50;0.40;;;16.30;99.90;;;;;;5019836;28;20496;-82
2021/07/28 04:00:20;;;;;;;0.50;0.30;;;16.30;99.90;;;;;;5021524;28;20446;-83
2021/07/28 04:02:47;;;;;;;0.70;0.57;;;16.30;99.90;;;;;;5025764;28;20438;-83
2021/07/28 04:05:14;;;;;;;0.50;0.47;;;16.40;99.90;;;;;;5027273;28;20498;-83
2021/07/28 04:07:41;;;;;;;0.50;0.40;;;16.40;99.90;;;;;;5027134;28;20487;-83
2021/07/28 04:10:09;;;;;;;0.50;0.30;;;16.50;99.90;;;;;;5025509;28;20589;-82
2021/07/28 04:12:36;;;;;;;0.50;0.50;;;16.50;99.90;;;;;;5025780;28;20428;-85
2021/07/28 04:15:03;;;;;;;0.50;0.30;;;16.60;99.90;;;;;;5027334;28;20443;-82
2021/07/28 04:17:31;;;;;;;0.50;0.40;;;16.70;99.90;;;;;;5025987;28;20436;-84
2021/07/28 04:19:59;;;;;;;0.90;0.40;;;16.60;99.90;;;;;;5027635;28;20450;-84
2021/07/28 04:22:27;;;;;;;1.33;1.23;;;16.70;99.90;;;;;;5029833;28;20450;-83
2021/07/28 04:24:54;;;;;;;0.50;0.30;;;16.70;99.90;;;;;;5028009;28;20466;-81
2021/07/28 04:27:21;;;;;;;1.53;1.13;;;16.70;99.90;;;;;;5029334;28;20508;-82
2021/07/28 04:29:48;;;;;;;0.60;0.60;;;16.70;99.90;;;;;;5029532;28;20478;-83
2021/07/28 04:32:14;;;;;;;0.50;0.50;;;16.80;99.90;;;;;;5028542;28;20879;-83
2021/07/28 04:34:43;;;;;;;1.67;1.53;;;16.80;99.90;;;;;;5026404;28;20451;-83
2021/07/28 04:37:09;;;;;;;4.00;1.53;;;16.90;99.90;;;;;;5027545;28;20439;-83
2021/07/28 04:39:36;;;;;;;0.60;0.50;;;16.90;99.90;;;;;;5026603;28;20452;-83
2021/07/28 04:42:03;;;;;;;0.50;0.40;;;17.00;99.90;;;;;;5026372;28;20462;-84
2021/07/28 04:44:30;;;;;;;1.23;0.90;;;17.00;99.90;;;;;;5026368;28;20453;-84
2021/07/28 04:46:56;;;;;;;0.50;0.30;;;17.00;99.90;;;;;;5026547;28;20431;-83
2021/07/28 04:49:23;;;;;;;0.50;0.30;;;17.00;99.90;;;;;;5026075;28;20483;-83
2021/07/28 04:51:51;;;;;;;0.70;0.60;;;17.10;99.90;;;;;;5025574;28;20447;-83
2021/07/28 04:54:18;;;;;;;1.73;1.03;;;17.10;99.90;;;;;;5025189;28;20857;-83
2021/07/28 04:56:45;;;;;;;1.03;1.03;;;17.10;99.90;;;;;;5025149;28;20442;-83
2021/07/28 04:59:12;;;;;;;1.13;1.03;;;17.10;99.90;;;;;;5025089;28;20460;-83
2021/07/28 05:01:39;;;;;;;0.70;0.50;;;17.10;99.90;;;;;;5024248;28;20443;-82
2021/07/28 05:04:06;;;;;;;0.50;0.40;;;17.00;99.90;;;;;;5022121;28;20441;-82
2021/07/28 05:06:32;;;;;;;0.90;0.90;;;17.00;99.90;;;;;;5020865;28;20960;-82
2021/07/28 05:09:00;;;;;;;0.50;0.30;;;17.10;99.90;;;;;;5021591;28;20490;-84
2021/07/28 05:11:27;;;;;;;0.67;0.67;;;17.10;99.90;;;;;;5022645;28;20440;-84
2021/07/28 05:13:54;;;;;;;2.30;1.17;;;17.10;99.90;;;;;;5020925;28;20453;-83
2021/07/28 05:16:21;;;;;;;0.50;0.50;;;17.20;99.90;;;;;;5022009;28;20828;-84
2021/07/28 05:18:47;;;;;;;2.80;1.10;;;17.20;99.90;;;;;;5031690;28;20478;-83
2021/07/28 05:21:14;;;;;;;2.43;1.77;;;17.30;99.90;;;;;;5020236;28;20440;-84
2021/07/28 05:23:43;;;;;;;0.50;0.30;;;17.30;99.90;;;;;;5033202;28;20426;-84
2021/07/28 05:26:11;;;;;;;0.50;0.30;;;17.30;99.90;;;;;;5043066;28;20439;-82
2021/07/28 05:28:37;;;;;;;0.60;0.40;;;17.40;99.90;;;;;;5028842;28;20479;-84
2021/07/28 05:31:04;;;;;;;0.97;0.97;;;17.50;99.90;;;;;;5035865;28;20431;-85
2021/07/28 05:33:31;;;;;;;1.10;1.10;;;17.70;99.90;;;;;;5040964;28;20446;-83
2021/07/28 05:35:58;;;;;;;0.50;0.40;;;17.70;99.90;;;;;;5042376;28;20445;-84
2021/07/28 05:38:24;;;;;;;0.50;0.50;;;17.80;99.90;;;;;;5042638;28;20466;-85
2021/07/28 05:40:55;;;;;;;1.10;1.00;;;17.90;99.90;;;;;;5040203;28;20449;-83
2021/07/28 05:43:23;;;;;;;0.50;0.30;;;17.90;99.90;;;;;;5031097;28;20455;-83
2021/07/28 05:45:50;;;;;;;0.97;0.87;;;18.00;99.90;;;;;;5019352;28;20443;-84
2021/07/28 05:48:17;;;;;;;2.30;0.90;;;18.20;99.90;;;;;;5019711;28;20544;-84
2021/07/28 05:50:44;;;;;;;2.07;1.03;;;18.30;99.90;;;;;;5019700;28;20431;-82
2021/07/28 05:53:10;;;;;;;0.50;0.40;;;18.60;99.90;;;;;;5019618;28;20443;-84
2021/07/28 05:55:37;;;;;;;0.60;0.57;;;18.80;99.90;;;;;;5021756;28;20495;-84
2021/07/28 05:58:04;;;;;;;0.73;0.70;;;19.00;99.90;;;;;;5021350;28;20814;-84
2021/07/28 06:00:32;;;;;;;1.23;1.13;;;19.10;99.90;;;;;;5022218;28;20442;-85
2021/07/28 06:02:59;;;;;;;2.00;1.47;;;19.10;99.90;;;;;;5023270;28;20444;-83
2021/07/28 06:05:25;;;;;;;0.50;0.30;;;19.10;99.90;;;;;;5023577;28;20446;-83
2021/07/28 06:07:52;;;;;;;0.50;0.40;;;19.10;99.90;;;;;;5024489;28;20499;-85
2021/07/28 06:10:19;;;;;;;1.87;1.07;;;19.20;99.90;;;;;;5025766;28;20475;-85
2021/07/28 06:12:46;;;;;;;0.50;0.30;;;19.20;99.90;;;;;;5026935;28;20435;-85
2021/07/28 06:15:13;;;;;;;0.50;0.40;;;19.20;99.90;;;;;;5028465;28;20453;-85
2021/07/28 06:17:41;;;;;;;0.50;0.37;;;19.10;99.90;;;;;;5026706;28;20547;-84
2021/07/28 06:20:09;;;;;;;1.23;1.13;;;19.00;99.90;;;;;;5032944;28;20469;-82
2021/07/28 06:22:35;;;;;;;0.73;0.70;;;19.00;99.90;;;;;;5033177;28;20436;-84
2021/07/28 06:25:02;;;;;;;0.50;0.40;;;19.00;99.90;;;;;;5030532;28;20435;-85
2021/07/28 06:27:29;;;;;;;0.50;0.30;;;19.00;99.90;;;;;;5031681;28;20449;-85
2021/07/28 06:29:56;;;;;;;0.50;0.30;;;19.10;99.90;;;;;;5030917;28;20475;-83
2021/07/28 06:32:23;;;;;;;0.50;0.40;;;19.10;99.90;;;;;;5029373;28;20439;-85
2021/07/28 06:34:51;;;;;;;0.60;0.50;;;19.10;99.90;;;;;;5027963;28;20440;-84
2021/07/28 06:37:18;;;;;;;1.07;0.97;;;19.20;99.90;;;;;;5024082;28;20444;-85
2021/07/28 06:39:45;;;;;;;0.60;0.50;;;19.30;99.90;;;;;;5026480;28;20495;-85
2021/07/28 06:42:11;;;;;;;0.50;0.30;;;19.30;99.90;;;;;;5024281;28;20439;-83
2021/07/28 06:44:38;;;;;;;0.83;0.70;;;19.30;99.90;;;;;;5026958;28;20443;-84
2021/07/28 06:47:05;;;;;;;0.50;0.30;;;19.20;99.90;;;;;;5028048;28;20439;-84
2021/07/28 06:49:31;;;;;;;0.50;0.30;;;19.10;99.90;;;;;;5026933;28;20582;-85
2021/07/28 06:52:00;;;;;;;0.50;0.30;;;19.10;99.90;;;;;;5028607;28;20474;-84
2021/07/28 06:54:26;;;;;;;0.60;0.60;;;19.10;99.90;;;;;;5025305;28;20526;-84
2021/07/28 06:56:53;;;;;;;0.93;0.70;;;19.20;99.90;;;;;;5025815;28;20442;-85
2021/07/28 06:59:20;;;;;;;0.50;0.30;;;19.30;99.90;;;;;;5025352;28;20746;-85
2021/07/28 07:01:46;;;;;;;0.80;0.67;;;19.30;99.90;;;;;;5026598;28;20443;-85
2021/07/28 07:04:13;;;;;;;1.83;0.90;;;19.20;99.90;;;;;;5025078;28;20443;-84
2021/07/28 07:06:40;;;;;;;0.50;0.30;;;19.10;99.90;;;;;;5022998;28;20443;-83
2021/07/28 07:09:08;;;;;;;1.60;1.50;;;18.70;99.90;;;;;;5024833;28;20814;-85
2021/07/28 07:11:35;;;;;;;1.00;0.90;;;18.40;99.90;;;;;;5037876;28;20441;-84
2021/07/28 07:14:02;;;;;;;0.50;0.40;;;18.20;99.90;;;;;;5043010;28;20431;-84
2021/07/28 07:16:28;;;;;;;1.03;1.00;;;18.00;99.90;;;;;;5043939;28;20434;-83
2021/07/28 07:18:55;;;;;;;0.50;0.30;;;17.90;99.90;;;;;;5045384;28;20461;-85
2021/07/28 07:21:22;;;;;;;0.77;0.77;;;17.80;99.90;;;;;;5039952;28;20454;-84
2021/07/28 07:23:49;;;;;;;0.50;0.30;;;17.80;99.90;;;;;;5038162;28;20442;-84
2021/07/28 07:26:17;;;;;;;0.80;0.80;;;17.70;99.90;;;;;;5044887;28;20526;-85
2021/07/28 07:28:44;;;;;;;0.50;0.30;;;17.80;99.90;;;;;;5043488;28;20461;-84
2021/07/28 07:31:11;;;;;;;0.50;0.30;;;17.80;99.90;;;;;;5042207;28;20466;-82
2021/07/28 07:33:38;;;;;;;1.07;1.03;;;17.80;99.90;;;;;;5044983;28;20430;-83
2021/07/28 07:36:06;;;;;;;0.50;0.30;;;17.80;99.90;;;;;;5042856;28;20435;-84
2021/07/28 07:38:33;;;;;;;0.50;0.40;;;17.90;99.90;;;;;;5043912;28;20459;-83
2021/07/28 07:41:00;;;;;;;0.90;0.90;;;18.00;99.90;;;;;;5043711;28;20436;-84
2021/07/28 07:43:28;;;;;;;0.77;0.77;;;18.20;99.90;;;;;;5042892;28;20422;-82
2021/07/28 07:45:56;;;;;;;0.50;0.30;;;18.20;99.90;;;;;;5043669;28;20445;-83
2021/07/28 07:48:23;;;;;;;0.60;0.60;;;18.20;99.90;;;;;;5042533;28;20497;-83
2021/07/28 07:50:50;;;;;;;0.50;0.50;;;18.30;99.90;;;;;;5041664;28;20466;-84
2021/07/28 07:53:17;;;;;;;0.50;0.30;;;18.50;99.90;;;;;;5041499;28;20441;-85
2021/07/28 07:55:44;;;;;;;0.50;0.40;;;18.90;99.90;;;;;;5041262;28;20438;-83
2021/07/28 07:58:10;;;;;;;0.50;0.30;;;19.30;99.90;;;;;;5043177;28;20441;-84
2021/07/28 08:00:38;;;;;;;1.47;1.37;;;19.40;99.90;;;;;;5047341;28;20442;-83
2021/07/28 08:03:05;;;;;;;0.50;0.40;;;19.30;99.90;;;;;;5043479;28;20458;-83
2021/07/28 08:05:33;;;;;;;0.50;0.30;;;19.10;99.90;;;;;;5040719;28;20831;-84
2021/07/28 08:08:00;;;;;;;0.60;0.50;;;18.90;99.90;;;;;;5040919;28;20451;-84
2021/07/28 08:10:27;;;;;;;0.50;0.43;;;18.70;99.90;;;;;;5038133;28;20819;-84
2021/07/28 08:12:53;;;;;;;0.90;0.90;;;18.50;99.90;;;;;;5041121;28;20438;-85
2021/07/28 08:15:20;;;;;;;0.80;0.73;;;18.20;99.90;;;;;;5043793;28;20446;-84
2021/07/28 08:17:48;;;;;;;0.50;0.40;;;17.70;99.90;;;;;;5039876;28;21001;-84
2021/07/28 08:20:16;;;;;;;0.50;0.50;;;17.40;99.90;;;;;;5043086;28;20435;-85
2021/07/28 08:22:43;;;;;;;0.50;0.40;;;17.50;99.90;;;;;;5041760;28;20446;-85
2021/07/28 08:25:10;;;;;;;2.53;1.70;;;17.80;99.90;;;;;;5040643;28;20427;-85
2021/07/28 08:27:38;;;;;;;2.07;1.97;;;17.80;99.90;;;;;;5039446;28;20451;-84
2021/07/28 08:30:05;;;;;;;0.67;0.67;;;17.80;99.90;;;;;;5039807;28;20458;-83
2021/07/28 08:32:32;;;;;;;1.70;1.37;;;17.90;99.90;;;;;;5040436;28;20434;-83
2021/07/28 08:35:00;;;;;;;0.50;0.30;;;18.60;99.90;;;;;;5040863;28;20441;-84
2021/07/28 08:37:27;;;;;;;3.53;1.93;;;20.20;99.90;;;;;;5041525;28;20954;-86
2021/07/28 08:39:54;;;;;;;0.50;0.40;;;22.30;99.90;;;;;;5041610;28;20776;-85
2021/07/28 08:42:23;;;;;;;0.50;0.37;;;24.10;99.90;;;;;;5040077;28;20440;-84
2021/07/28 08:44:50;;;;;;;1.87;1.77;;;24.10;99.90;;;;;;5040940;28;20473;-84
2021/07/28 08:49:45;;;;;;;0.70;0.70;;;24.20;99.90;;;;;;4998699;28;20987;-79
2021/07/28 08:52:14;;;;;;;0.50;0.30;;;24.70;99.90;;;;;;5001337;28;20431;-79
2021/07/28 08:54:41;;;;;;;0.97;0.87;;;23.90;99.90;;;;;;4999275;28;20436;-79
2021/07/28 08:57:11;;;;;;;0.60;0.50;;;23.60;99.90;;;;;;5000785;28;20439;-77
2021/07/28 08:59:38;;;;;;;0.50;0.30;;;23.30;99.90;;;;;;5008453;28;20505;-77
2021/07/28 09:02:04;;;;;;;1.70;1.60;;;23.20;99.90;;;;;;5012371;28;20435;-79
2021/07/28 09:04:31;;;;;;;1.67;1.37;;;23.30;99.90;;;;;;5009819;28;20436;-79
2021/07/28 09:06:58;;;;;;;0.60;0.53;;;23.90;99.90;;;;;;5012150;28;20442;-79
2021/07/28 09:09:26;;;;;;;1.23;0.70;;;24.00;99.90;;;;;;5023622;28;20463;-80
2021/07/28 09:11:55;;;;;;;0.80;0.80;;;24.40;99.90;;;;;;5023424;28;20453;-80
2021/07/28 09:14:23;;;;;;;0.77;0.77;;;24.50;99.90;;;;;;5022130;28;20447;-80
2021/07/28 09:16:51;;;;;;;5.13;1.60;;;23.50;99.90;;;;;;5022045;28;20445;-79
2021/07/28 09:19:39;;;;;;;1.43;1.33;;;24.00;99.90;;;;;;5022701;28;20466;-78
2021/07/28 09:22:08;;;;;;;0.97;0.87;;;24.50;99.90;;;;;;5022195;28;20533;-79
2021/07/28 09:24:36;;;;;;;1.07;1.03;;;24.50;99.90;;;;;;5021754;28;20452;-79
2021/07/28 09:27:05;;;;;;;0.50;0.30;;;24.00;99.90;;;;;;5020415;28;20434;-78
2021/07/28 09:29:33;;;;;;;1.50;1.40;;;23.80;99.90;;;;;;5020664;28;20836;-80
2021/07/28 09:32:04;;;;;;;0.80;0.80;;;24.20;99.90;;;;;;5018549;28;20443;-79
2021/07/28 09:34:35;;;;;;;0.53;0.40;;;25.20;99.90;;;;;;5019760;28;20439;-79
2021/07/28 09:37:05;;;;;;;0.73;0.73;;;26.60;99.90;;;;;;5019958;28;20440;-79
2021/07/28 09:39:34;;;;;;;1.13;1.00;;;27.20;99.90;;;;;;5020271;28;20521;-80
2021/07/28 09:42:09;;;;;;;0.70;0.70;;;27.40;99.90;;;;;;5020331;28;20449;-80
2021/07/28 09:44:36;;;;;;;1.27;1.17;;;28.20;99.90;;;;;;5019878;28;20526;-79
2021/07/28 09:47:15;;;;;;;1.07;0.97;;;28.10;99.90;;;;;;5019029;28;20802;-79
2021/07/28 09:49:42;;;;;;;1.00;0.83;;;27.30;99.90;;;;;;5018730;28;20454;-80
2021/07/28 09:52:23;;;;;;;1.17;0.70;;;27.50;99.90;;;;;;5018887;28;20447;-78
2021/07/28 09:54:51;;;;;;;1.73;1.30;;;26.30;99.90;;;;;;5018350;28;20928;-79
2021/07/28 09:57:21;;;;;;;1.23;1.13;;;24.90;99.90;;;;;;5018199;28;20447;-79
2021/07/28 09:59:54;;;;;;;0.50;0.40;;;24.50;99.90;;;;;;5019529;28;20794;-79
2021/07/28 10:02:23;;;;;;;1.30;1.27;;;24.30;99.90;;;;;;5018129;28;20451;-80
2021/07/28 10:04:52;;;;;;;1.00;0.83;;;25.00;99.90;;;;;;5019975;28;20507;-79
2021/07/28 10:07:20;;;;;;;0.60;0.60;;;25.60;99.90;;;;;;5019353;28;20979;-79
2021/07/28 10:09:54;;;;;;;4.10;0.73;;;25.20;99.90;;;;;;5021953;28;20451;-79
2021/07/28 10:12:23;;;;;;;0.50;0.30;;;26.20;99.90;;;;;;5022191;28;20526;-79
2021/07/28 10:14:51;;;;;;;0.50;0.40;;;26.70;99.90;;;;;;5024623;28;20444;-79
2021/07/28 10:17:18;;;;;;;0.50;0.30;;;26.40;99.90;;;;;;5024491;28;20435;-78
2021/07/28 10:19:45;;;;;;;0.77;0.77;;;26.90;99.90;;;;;;5024663;28;20889;-79
2021/07/28 10:22:12;;;;;;;2.10;1.77;;;26.90;99.90;;;;;;5021325;28;20427;-79
2021/07/28 10:24:39;;;;;;;0.50;0.40;;;26.70;99.90;;;;;;5023167;28;20439;-79
2021/07/28 10:27:07;;;;;;;0.63;0.60;;;27.40;99.90;;;;;;5023706;28;20436;-80
2021/07/28 10:29:35;;;;;;;0.57;0.50;;;28.30;99.90;;;;;;5023402;28;20899;-79
2021/07/28 10:32:02;;;;;;;5.80;2.00;;;29.40;99.90;;;;;;5024039;28;20482;-79
2021/07/28 10:34:30;;;;;;;0.50;0.30;;;30.10;99.90;;;;;;5024177;28;20473;-79
2021/07/28 10:37:04;;;;;;;2.63;0.60;;;30.40;93.40;;;;;;5023506;28;20518;-79
2021/07/28 10:39:36;;;;;;;0.70;0.70;;;29.40;92.70;;;;;;5022563;28;20457;-79
2021/07/28 10:42:03;;;;;;;1.20;1.10;;;29.40;92.40;;;;;;5020254;28;20436;-79
2021/07/28 10:44:32;;;;;;;0.87;0.67;;;27.70;94.40;;;;;;5019307;28;20962;-79
2021/07/28 10:47:16;;;;;;;0.70;0.70;;;27.20;99.50;;;;;;5018330;28;20466;-80
2021/07/28 10:49:47;;;;;;;0.60;0.40;;;27.30;99.90;;;;;;5019284;28;20455;-79
2021/07/28 10:52:44;;;;;;;0.70;0.50;;;28.00;99.90;;;;;;5019726;28;20514;-79
2021/07/28 10:55:13;;;;;;;0.90;0.63;;;28.60;99.00;;;;;;5019867;28;20439;-78
2021/07/28 10:58:22;;;;;;;0.50;0.40;;;27.60;99.90;;;;;;5019671;28;20463;-79
2021/07/28 11:00:59;;;;;;;1.13;0.87;;;26.60;99.90;;;;;;5020268;28;20443;-79
2021/07/28 11:03:33;;;;;;;0.50;0.40;;;26.20;99.90;;;;;;5019947;28;20443;-78
2021/07/28 11:06:20;;;;;;;0.50;0.30;;;26.00;99.90;;;;;;5022151;28;20424;-79
2021/07/28 11:08:48;;;;;;;0.50;0.47;;;25.80;99.90;;;;;;5023846;28;20455;-78
2021/07/28 11:11:23;;;;;;;0.50;0.40;;;26.00;99.90;;;;;;5021401;28;20654;-80
2021/07/28 11:13:50;;;;;;;0.80;0.70;;;26.20;99.90;;;;;;5021989;28;20442;-79
2021/07/28 11:16:17;;;;;;;0.60;0.60;;;26.80;99.90;;;;;;5022970;28;20478;-79
2021/07/28 11:18:46;;;;;;;0.50;0.30;;;26.90;99.90;;;;;;5019922;28;20459;-78
2021/07/28 11:21:16;;;;;;;0.50;0.37;;;27.20;99.90;;;;;;5021554;28;20439;-79
2021/07/28 11:23:48;;;;;;;0.50;0.30;;;27.60;99.90;;;;;;5021378;28;20921;-79
2021/07/28 11:26:22;;;;;;;0.80;0.60;;;27.00;99.90;;;;;;5021628;28;20442;-78
2021/07/28 11:28:50;;;;;;;0.90;0.90;;;26.40;99.90;;;;;;5021576;28;20530;-80
2021/07/28 11:31:30;;;;;;;1.47;0.70;;;26.40;99.90;;;;;;5019725;28;20486;-79
2021/07/28 11:34:10;;;;;;;0.50;0.40;;;26.40;99.90;;;;;;5020128;28;20515;-79
2021/07/28 11:36:38;;;;;;;0.60;0.40;;;27.10;99.90;;;;;;5020981;28;20443;-78
2021/07/28 11:39:09;;;;;;;0.50;0.40;;;27.30;94.70;;;;;;5020166;28;20464;-79
2021/07/28 11:41:36;;;;;;;0.50;0.30;;;26.50;97.70;;;;;;5020303;28;20432;-79
2021/07/28 11:44:03;;;;;;;1.50;1.40;;;26.30;99.90;;;;;;5020895;28;20451;-80
2021/07/28 11:46:30;;;;;;;0.50;0.30;;;26.50;99.90;;;;;;5020653;28;20450;-78
2021/07/28 11:48:59;;;;;;;1.00;0.50;;;26.00;99.90;;;;;;5021005;28;20476;-79
2021/07/28 11:51:31;;;;;;;0.57;0.50;;;25.40;99.90;;;;;;5020739;28;20562;-79
2021/07/28 11:54:08;;;;;;;0.60;0.50;;;25.20;99.90;;;;;;5022668;28;20447;-80
2021/07/28 11:56:34;;;;;;;0.50;0.30;;;26.00;99.90;;;;;;5025100;28;20427;-80
2021/07/28 11:59:01;;;;;;;0.50;0.40;;;27.10;99.90;;;;;;5026083;28;20469;-79
2021/07/28 12:01:30;;;;;;;1.73;0.90;;;28.10;94.30;;;;;;5023379;28;20449;-79
2021/07/28 12:03:57;;;;;;;0.60;0.40;;;28.10;89.00;;;;;;5024315;28;20437;-78
2021/07/28 12:06:37;;;;;;;0.50;0.40;;;28.20;89.70;;;;;;5023000;28;20942;-80
2021/07/28 12:09:13;;;;;;;0.50;0.30;;;27.40;87.40;;;;;;5022484;28;20869;-78
2021/07/28 12:11:51;;;;;;;0.60;0.40;;;27.10;91.70;;;;;;5021006;28;20515;-80
2021/07/28 12:14:29;;;;;;;0.87;0.60;;;26.90;87.20;;;;;;5022305;28;20445;-79
2021/07/28 12:16:59;;;;;;;0.50;0.40;;;27.40;87.90;;;;;;5022823;28;20441;-79
2021/07/28 12:19:28;;;;;;;0.90;0.50;;;28.50;85.10;;;;;;5024335;28;20466;-80
2021/07/28 12:22:04;;;;;;;1.97;0.80;;;28.70;80.40;;;;;;5024377;28;20440;-79
2021/07/28 12:24:36;;;;;;;1.30;0.73;;;28.40;76.80;;;;;;5025982;28;20432;-78
2021/07/28 12:27:39;;;;;;;6.20;1.70;;;27.80;83.10;;;;;;5021246;28;20446;-79
2021/07/28 12:30:17;;;;;;;0.70;0.60;;;27.50;82.70;;;;;;5023281;28;20435;-78
2021/07/28 12:32:45;;;;;;;0.60;0.40;;;28.10;83.50;;;;;;5024012;28;20485;-79
2021/07/28 12:35:30;;;;;;;0.80;0.50;;;28.20;82.80;;;;;;5025375;28;20521;-79
2021/07/28 12:38:10;;;;;;;0.90;0.80;;;28.50;77.70;;;;;;5021827;28;20451;-79
2021/07/28 12:40:38;;;;;;;1.77;0.60;;;28.60;75.60;;;;;;5023490;28;20797;-79
2021/07/28 12:43:06;;;;;;;1.83;0.53;;;29.00;76.20;;;;;;5023736;28;20445;-79
2021/07/28 12:45:33;;;;;;;0.50;0.30;;;28.80;72.80;;;;;;5022795;28;20438;-79
2021/07/28 12:48:00;;;;;;;1.13;0.60;;;29.20;73.50;;;;;;5024938;28;20842;-79
2021/07/28 12:50:27;;;;;;;2.40;1.27;;;29.30;71.70;;;;;;5024194;28;20741;-79
2021/07/28 12:52:54;;;;;;;0.73;0.67;;;28.70;70.70;;;;;;5023968;28;20445;-79
2021/07/28 12:55:22;;;;;;;1.53;1.43;;;28.10;72.30;;;;;;5018752;28;20475;-81
2021/07/28 12:57:49;;;;;;;0.50;0.33;;;28.10;76.00;;;;;;5023119;28;20539;-80
2021/07/28 13:00:16;;;;;;;0.60;0.40;;;27.90;74.20;;;;;;5022973;28;20459;-79